Terminal Aerodrome Forecast
Issued by NWS

Home | Current Version | Previous Version | Text Only | Print | Product List | Glossary On
Versions: 1 2 3 4 5 6 7 8 9 10 11 12 13 14 15
810
FTUS46 KSEW 212334
TAFCLM
TAF
KCLM 212334Z 2200/2224 00000KT P6SM -RA OVC003 WS020/19035KT
     FM220400 29002KT 2SM -RA BR OVC007
     FM221200 24002KT P6SM VCSH OVC015
     FM222300 26004KT 4SM -RA BR OVC007=

USA.gov is the U.S. government's official web portal to all federal, state and local government web resources and services.